createdAt,value
2022-10-15T00:00:16.847Z,100042.39
2022-10-15T00:05:41.176Z,100031.30
2022-10-15T00:10:44.530Z,100028.01
2022-10-15T00:15:47.819Z,100024.66
2022-10-15T00:20:51.103Z,100021.77
2022-10-15T00:26:09.563Z,100018.37
2022-10-15T00:31:15.469Z,100014.29
2022-10-15T00:36:24.544Z,100009.50
2022-10-15T00:41:32.545Z,100010.69
2022-10-15T00:46:38.614Z,99995.19
2022-10-15T00:51:45.386Z,99994.96
2022-10-15T00:56:49.498Z,100002.47
2022-10-15T01:01:53.657Z,100001.89
2022-10-15T01:06:57.044Z,99990.28
2022-10-15T01:12:00.777Z,99976.80
2022-10-15T01:17:28.247Z,99976.65
2022-10-15T01:22:53.820Z,99968.77
2022-10-15T01:28:19.576Z,99960.95
2022-10-15T01:33:27.932Z,99950.27
2022-10-15T01:38:36.894Z,99944.12
2022-10-15T01:43:47.607Z,99950.20
2022-10-15T01:49:09.388Z,99939.12
2022-10-15T01:54:16.512Z,99929.32
2022-10-15T01:59:23.416Z,99923.79
2022-10-15T02:04:29.498Z,99922.08
2022-10-15T02:09:35.956Z,99918.48
2022-10-15T02:14:55.016Z,99910.54
2022-10-15T02:20:05.690Z,99905.34
2022-10-15T02:25:13.587Z,99898.63
2022-10-15T02:30:17.404Z,99888.77
2022-10-15T02:35:21.782Z,99885.70
2022-10-15T02:40:30.259Z,99876.15
2022-10-15T02:45:34.154Z,99874.66
2022-10-15T02:50:37.778Z,99867.39
2022-10-15T02:55:42.089Z,99871.31
2022-10-15T03:00:48.833Z,99873.42
2022-10-15T03:05:52.976Z,99866.23
2022-10-15T03:11:00.820Z,99855.86
2022-10-15T03:16:06.501Z,99844.40
2022-10-15T03:21:10.411Z,99838.84
2022-10-15T03:26:15.481Z,99839.70
2022-10-15T03:31:19.194Z,99842.08
2022-10-15T03:36:23.970Z,99837.78
2022-10-15T03:41:27.956Z,99833.17
2022-10-15T03:46:32.960Z,99824.55
2022-10-15T03:51:36.821Z,99819.54
2022-10-15T03:56:43.610Z,99815.36
2022-10-15T04:01:57.469Z,99814.82
2022-10-15T04:07:01.100Z,99818.85
2022-10-15T04:12:04.989Z,99820.71
2022-10-15T04:17:08.388Z,99814.64
2022-10-15T04:22:17.108Z,99806.41
2022-10-15T04:27:27.501Z,99799.17
2022-10-15T04:32:38.085Z,99795.05
2022-10-15T04:37:41.454Z,99787.86
2022-10-15T04:42:47.134Z,99799.35
2022-10-15T04:47:50.540Z,99804.59
2022-10-15T04:52:55.556Z,99807.39
2022-10-15T04:57:59.297Z,99809.34
2022-10-15T05:03:06.739Z,99804.58
2022-10-15T05:08:23.137Z,99804.48
2022-10-15T05:13:47.742Z,99801.71
2022-10-15T05:18:53.571Z,99804.13
2022-10-15T05:23:57.735Z,99812.37
2022-10-15T05:29:19.558Z,99805.73
2022-10-15T05:34:23.087Z,99792.70
2022-10-15T05:39:33.838Z,99778.22
2022-10-15T05:44:37.295Z,99769.89
2022-10-15T05:49:42.144Z,99770.08
2022-10-15T05:54:49.026Z,99774.90
2022-10-15T05:59:56.904Z,99776.89
2022-10-15T06:05:02.838Z,99782.95
2022-10-15T06:10:06.413Z,99788.34
2022-10-15T06:15:13.083Z,99798.89
2022-10-15T06:20:20.182Z,99803.56
2022-10-15T06:25:27.806Z,99805.91
2022-10-15T06:30:31.757Z,99810.37
2022-10-15T06:35:36.831Z,99814.30
2022-10-15T06:40:40.765Z,99816.63
2022-10-15T06:45:49.716Z,99820.94
2022-10-15T06:50:59.489Z,99831.35
2022-10-15T06:56:04.293Z,99838.04
2022-10-15T07:06:36.987Z,99832.70
2022-10-15T07:11:44.499Z,99837.97
2022-10-15T07:16:50.093Z,99835.09
2022-10-15T07:22:00.115Z,99833.89
2022-10-15T07:27:20.647Z,99836.86
2022-10-15T07:32:25.839Z,99846.45
2022-10-15T07:37:32.009Z,99851.28
2022-10-15T07:42:36.634Z,99853.17
2022-10-15T07:47:42.034Z,99854.64
2022-10-15T07:52:49.426Z,99851.45
2022-10-15T07:57:52.667Z,99846.33
2022-10-15T08:02:58.455Z,99851.15
2022-10-15T08:08:09.133Z,99844.85
2022-10-15T08:13:12.623Z,99847.49
2022-10-15T08:18:22.140Z,99847.70
2022-10-15T08:23:29.407Z,99846.11
2022-10-15T08:28:34.587Z,99848.14
2022-10-15T08:33:47.648Z,99854.68
2022-10-15T08:38:50.990Z,99854.05
2022-10-15T08:43:54.775Z,99861.82
2022-10-15T08:49:00.355Z,99866.10
2022-10-15T08:54:07.941Z,99872.45
2022-10-15T08:59:40.088Z,99876.98
2022-10-15T09:05:00.002Z,99871.28
2022-10-15T09:10:13.303Z,99867.48
2022-10-15T09:15:22.656Z,99870.34
2022-10-15T09:20:36.849Z,99867.42
2022-10-15T09:25:42.854Z,99867.19
2022-10-15T09:30:57.067Z,99866.94
2022-10-15T09:36:07.464Z,99870.69
2022-10-15T09:41:20.230Z,99875.70
2022-10-15T09:46:29.756Z,99877.27
2022-10-15T09:51:42.572Z,99877.95
2022-10-15T09:56:50.274Z,99880.95
2022-10-15T10:02:05.896Z,99885.52
2022-10-15T10:07:28.275Z,99892.34
2022-10-15T10:12:35.070Z,99888.83
2022-10-15T10:17:38.395Z,99894.79
2022-10-15T10:22:51.742Z,99894.27
2022-10-15T10:27:57.980Z,99896.11
2022-10-15T10:33:05.483Z,99895.45
2022-10-15T10:38:21.231Z,99898.38
2022-10-15T10:43:27.455Z,99893.04
2022-10-15T10:48:49.709Z,99883.08
2022-10-15T10:54:01.703Z,99889.98
2022-10-15T10:59:30.900Z,99892.46
2022-10-15T11:04:36.202Z,99894.73
2022-10-15T11:10:08.805Z,99888.74
2022-10-15T11:15:20.874Z,99878.52
2022-10-15T11:20:57.884Z,99873.21
2022-10-15T11:26:58.810Z,99865.05
2022-10-15T11:32:54.481Z,99857.17
2022-10-15T11:38:19.917Z,99841.27
2022-10-15T11:43:45.609Z,99840.60
2022-10-15T11:49:13.600Z,99842.05
2022-10-15T11:54:43.494Z,99844.27
2022-10-15T12:00:05.425Z,99847.23
2022-10-15T12:05:31.910Z,99846.70
2022-10-15T12:11:05.719Z,99848.14
2022-10-15T12:16:29.570Z,99847.80
2022-10-15T12:21:59.198Z,99852.88
2022-10-15T12:27:19.042Z,99857.98
2022-10-15T12:32:30.528Z,99855.37
2022-10-15T12:37:36.183Z,99852.34
2022-10-15T12:42:48.872Z,99846.69
2022-10-15T12:48:16.499Z,99844.31
2022-10-15T12:53:32.849Z,99844.00
2022-10-15T12:58:39.371Z,99848.19
2022-10-15T13:03:48.587Z,99847.82
2022-10-15T13:09:10.465Z,99850.59
2022-10-15T13:14:16.862Z,99851.67
2022-10-15T13:19:28.737Z,99854.92
2022-10-15T13:24:43.511Z,99852.15
2022-10-15T13:30:15.414Z,99844.89
2022-10-15T13:35:21.786Z,99849.50
2022-10-15T13:40:27.934Z,99854.02
2022-10-15T13:45:31.697Z,99859.89
2022-10-15T13:50:36.465Z,99860.02
2022-10-15T13:56:19.572Z,99864.02
2022-10-15T14:01:31.421Z,99867.83
2022-10-15T14:06:40.408Z,99876.43
2022-10-15T14:11:53.505Z,99876.12
2022-10-15T14:17:01.856Z,99883.06
2022-10-15T14:22:05.599Z,99881.59
2022-10-15T14:27:25.554Z,99882.52
2022-10-15T14:32:46.203Z,99877.77
2022-10-15T14:38:03.728Z,99879.52
2022-10-15T14:43:16.232Z,99879.15
2022-10-15T14:48:24.507Z,99875.42
2022-10-15T14:53:39.672Z,99872.95
2022-10-15T14:58:54.683Z,99873.63
2022-10-15T15:04:01.102Z,99875.08
2022-10-15T15:09:11.589Z,99881.95
2022-10-15T15:14:25.559Z,99890.70
2022-10-15T15:19:38.249Z,99903.23
2022-10-15T15:24:44.043Z,99908.89
2022-10-15T15:29:55.435Z,99914.85
2022-10-15T15:34:58.875Z,99908.11
2022-10-15T15:40:07.699Z,99916.45
2022-10-15T15:45:24.919Z,99925.88
2022-10-15T15:50:32.292Z,99929.27
2022-10-15T15:55:39.970Z,99926.52
2022-10-15T16:00:44.957Z,99927.00
2022-10-15T16:05:52.795Z,99930.59
2022-10-15T16:11:11.184Z,99934.75
2022-10-15T16:16:20.717Z,99942.54
2022-10-15T16:21:29.337Z,99942.14
2022-10-15T16:26:38.205Z,99950.77
2022-10-15T16:31:42.885Z,99958.10
2022-10-15T16:37:11.714Z,99959.87
2022-10-15T16:47:31.495Z,99970.11
2022-10-15T16:52:38.657Z,99973.48
2022-10-15T16:57:52.231Z,99972.05
2022-10-15T17:03:09.288Z,99979.66
2022-10-15T17:08:22.606Z,99980.96
2022-10-15T17:13:29.593Z,99988.12
2022-10-15T17:18:36.131Z,99996.55
2022-10-15T17:23:42.124Z,100000.52
2022-10-15T17:28:52.157Z,100005.61
2022-10-15T17:34:26.053Z,100013.38
2022-10-15T17:39:40.418Z,100014.39
2022-10-15T17:44:58.681Z,100016.20
2022-10-15T17:50:09.313Z,100023.48
2022-10-15T17:55:22.415Z,100032.98
2022-10-15T18:00:38.135Z,100034.79
2022-10-15T18:05:44.695Z,100028.48
2022-10-15T18:10:53.609Z,100027.92
2022-10-15T18:16:00.416Z,100036.19
2022-10-15T18:21:15.329Z,100041.64
2022-10-15T18:26:21.658Z,100037.80
2022-10-15T18:31:26.702Z,100044.77
2022-10-15T18:36:31.604Z,100042.48
2022-10-15T18:41:37.656Z,100048.06
2022-10-15T18:46:42.526Z,100056.30
2022-10-15T18:51:55.381Z,100059.31
2022-10-15T18:56:59.154Z,100059.33
2022-10-15T19:02:03.000Z,100060.42
2022-10-15T19:07:09.500Z,100063.41
2022-10-15T19:12:12.905Z,100064.61
2022-10-15T19:17:19.709Z,100072.93
2022-10-15T19:22:23.624Z,100077.05
2022-10-15T19:27:29.986Z,100081.63
2022-10-15T19:32:37.653Z,100081.33
2022-10-15T19:37:41.011Z,100091.65
2022-10-15T19:42:44.297Z,100094.46
2022-10-15T19:47:47.649Z,100097.02
2022-10-15T19:52:50.980Z,100104.05
2022-10-15T19:57:54.918Z,100107.35
2022-10-15T20:03:01.387Z,100114.89
2022-10-15T20:08:05.291Z,100117.80
2022-10-15T20:13:09.379Z,100120.23
2022-10-15T20:18:13.215Z,100125.31
2022-10-15T20:23:17.832Z,100127.55
2022-10-15T20:28:21.211Z,100135.64
2022-10-15T20:33:24.841Z,100138.89
2022-10-15T20:38:28.160Z,100143.17
2022-10-15T20:43:36.055Z,100146.27
2022-10-15T20:48:42.847Z,100152.73
2022-10-15T20:53:46.402Z,100151.96
2022-10-15T20:58:54.953Z,100158.86
2022-10-15T21:04:02.231Z,100168.12
2022-10-15T21:09:06.151Z,100168.16
2022-10-15T21:14:14.905Z,100163.16
2022-10-15T21:19:18.289Z,100163.11
2022-10-15T21:24:21.616Z,100162.30
2022-10-15T21:29:26.091Z,100167.65
2022-10-15T21:34:29.624Z,100178.98
2022-10-15T21:39:33.012Z,100177.98
2022-10-15T21:44:36.837Z,100177.09
2022-10-15T21:49:44.362Z,100178.79
2022-10-15T21:54:49.776Z,100180.58
2022-10-15T21:59:56.315Z,100188.08
2022-10-15T22:05:00.113Z,100193.55
2022-10-15T22:10:06.318Z,100201.86
2022-10-15T22:15:10.506Z,100213.09
2022-10-15T22:20:18.202Z,100217.66
2022-10-15T22:25:24.084Z,100218.27
2022-10-15T22:30:41.373Z,100216.21
2022-10-15T22:35:45.506Z,100220.09
2022-10-15T22:40:55.084Z,100223.61
2022-10-15T22:46:00.320Z,100231.78
2022-10-15T22:51:05.588Z,100227.13
2022-10-15T22:56:13.858Z,100232.20
2022-10-15T23:01:29.470Z,100239.84
2022-10-15T23:06:34.666Z,100238.66
2022-10-15T23:11:40.482Z,100238.80
2022-10-15T23:16:46.730Z,100232.02
2022-10-15T23:21:52.150Z,100225.23
2022-10-15T23:27:00.877Z,100227.61
2022-10-15T23:32:04.280Z,100231.52
2022-10-15T23:37:07.827Z,100232.41
2022-10-15T23:42:11.305Z,100238.01
2022-10-15T23:47:14.533Z,100240.92
2022-10-15T23:52:17.794Z,100243.86
2022-10-15T23:57:21.219Z,100251.70
